Time;durP1;ratioP1;P1;durP2;ratioP2;P2;SDS_P1;SDS_P2;PMS_P1;PMS_P2;Temp;Humidity;BMP_temperature;BMP_pressure;BME280_temperature;BME280_humidity;BME280_pressure;Samples;Min_cycle;Max_cycle;Signal;HPM_P1;HPM_P2
2023/05/15 00:00:05;;;;;;;0.60;0.60;;;9.50;99.90;;;;;;5053513;28;20263;-70
2023/05/15 00:02:33;;;;;;;0.80;0.80;;;9.50;99.90;;;;;;5053575;28;20276;-70
2023/05/15 00:04:59;;;;;;;1.25;1.17;;;9.40;99.90;;;;;;5054010;28;20202;-71
2023/05/15 00:07:25;;;;;;;0.60;0.60;;;9.30;99.90;;;;;;5053849;28;20563;-70
2023/05/15 00:09:51;;;;;;;0.75;0.75;;;9.20;99.90;;;;;;5053812;28;20220;-70
2023/05/15 00:12:17;;;;;;;2.05;1.55;;;9.10;99.90;;;;;;5053876;28;20213;-70
2023/05/15 00:14:42;;;;;;;0.98;0.70;;;9.10;99.90;;;;;;5053927;28;20185;-70
2023/05/15 00:17:08;;;;;;;0.90;0.90;;;9.10;99.90;;;;;;5053143;28;20247;-70
2023/05/15 00:19:34;;;;;;;0.98;0.98;;;9.00;99.90;;;;;;5053572;28;20660;-70
2023/05/15 00:22:00;;;;;;;0.70;0.70;;;9.00;99.90;;;;;;5053864;28;20193;-70
2023/05/15 00:24:25;;;;;;;1.20;1.10;;;9.00;99.90;;;;;;5053601;28;20189;-70
2023/05/15 00:26:51;;;;;;;0.65;0.65;;;8.90;99.90;;;;;;5053821;28;20567;-70
2023/05/15 00:29:17;;;;;;;0.90;0.90;;;8.90;99.90;;;;;;5035675;28;20283;-70
2023/05/15 00:31:43;;;;;;;1.40;1.30;;;8.80;99.90;;;;;;5053274;28;20200;-70
2023/05/15 00:34:08;;;;;;;0.70;0.70;;;8.80;99.90;;;;;;5053258;28;20204;-70
2023/05/15 00:36:34;;;;;;;0.70;0.70;;;8.80;99.90;;;;;;5053345;28;20194;-70
2023/05/15 00:39:00;;;;;;;0.60;0.60;;;8.70;99.90;;;;;;5036215;28;20194;-70
2023/05/15 00:41:27;;;;;;;1.52;0.82;;;8.70;99.90;;;;;;5033154;28;20199;-70
2023/05/15 00:43:54;;;;;;;0.70;0.70;;;8.60;99.90;;;;;;5015939;28;20194;-70
2023/05/15 00:46:21;;;;;;;0.70;0.70;;;8.60;99.90;;;;;;5015316;28;20301;-70
2023/05/15 00:48:49;;;;;;;0.90;0.90;;;8.50;99.90;;;;;;5033360;28;20711;-69
2023/05/15 00:51:16;;;;;;;0.60;0.60;;;8.50;99.90;;;;;;5015559;28;20202;-69
2023/05/15 00:53:43;;;;;;;0.70;0.70;;;8.40;99.90;;;;;;5044358;28;20688;-70
2023/05/15 00:56:11;;;;;;;0.73;0.73;;;8.40;99.90;;;;;;5035253;28;20208;-70
2023/05/15 00:58:37;;;;;;;0.60;0.60;;;8.30;99.90;;;;;;5052312;28;20667;-69
2023/05/15 01:01:03;;;;;;;0.60;0.60;;;8.30;99.90;;;;;;5035680;28;20216;-67
2023/05/15 01:03:29;;;;;;;0.60;0.60;;;8.20;99.90;;;;;;5054018;22;20212;-74
2023/05/15 01:05:55;;;;;;;1.02;0.90;;;8.20;99.90;;;;;;5071639;28;20216;-73
2023/05/15 01:08:39;;;;;;;0.80;0.80;;;8.10;99.90;;;;;;5061665;28;20235;-74
2023/05/15 01:11:07;;;;;;;0.75;0.75;;;8.10;99.90;;;;;;5053038;28;20218;-74
2023/05/15 01:13:32;;;;;;;1.92;0.82;;;8.10;99.90;;;;;;5056698;28;20201;-74
2023/05/15 01:15:58;;;;;;;0.65;0.65;;;8.00;99.90;;;;;;5056798;28;20201;-75
2023/05/15 01:18:31;;;;;;;0.63;0.63;;;8.00;99.90;;;;;;5056654;28;20197;-74
2023/05/15 01:21:25;;;;;;;0.60;0.60;;;7.90;99.90;;;;;;5056793;28;20205;-74
2023/05/15 01:24:03;;;;;;;0.70;0.70;;;7.90;99.90;;;;;;5056521;28;20194;-74
2023/05/15 01:26:50;;;;;;;0.60;0.60;;;7.80;99.90;;;;;;5055165;28;20264;-74
2023/05/15 01:29:36;;;;;;;0.80;0.80;;;7.80;99.90;;;;;;5056336;28;20325;-74
2023/05/15 01:32:09;;;;;;;0.70;0.70;;;7.80;99.90;;;;;;5056611;28;20225;-74
2023/05/15 01:34:47;;;;;;;0.68;0.68;;;7.70;99.90;;;;;;5038295;28;20243;-74
2023/05/15 01:37:18;;;;;;;0.77;0.77;;;7.70;99.90;;;;;;5058548;28;20198;-74
2023/05/15 01:39:48;;;;;;;1.80;1.00;;;7.60;99.90;;;;;;5076250;28;20254;-74
2023/05/15 01:42:17;;;;;;;0.70;0.70;;;7.60;99.90;;;;;;5076160;28;20655;-74
2023/05/15 01:44:50;;;;;;;0.73;0.73;;;7.50;99.90;;;;;;5075906;28;20181;-74
2023/05/15 01:47:20;;;;;;;4.95;3.33;;;7.50;99.90;;;;;;5076437;28;20258;-74
2023/05/15 01:49:48;;;;;;;0.77;0.77;;;7.40;99.90;;;;;;5076081;28;20678;-74
2023/05/15 01:52:27;;;;;;;0.70;0.70;;;7.40;99.90;;;;;;5075924;28;20225;-74
2023/05/15 01:54:54;;;;;;;0.70;0.70;;;7.40;99.90;;;;;;5058110;28;20655;-74
2023/05/15 01:57:22;;;;;;;0.68;0.68;;;7.40;99.90;;;;;;5075717;28;20200;-74
2023/05/15 01:59:50;;;;;;;1.25;1.15;;;7.40;99.90;;;;;;5075821;28;20216;-74
2023/05/15 02:02:17;;;;;;;1.42;1.35;;;7.40;99.90;;;;;;5075081;28;20200;-74
2023/05/15 02:04:45;;;;;;;0.60;0.60;;;7.30;99.90;;;;;;5057379;28;20232;-74
2023/05/15 02:07:12;;;;;;;0.45;0.45;;;7.30;99.90;;;;;;5075497;28;20185;-74
2023/05/15 02:09:40;;;;;;;0.70;0.70;;;7.30;99.90;;;;;;5057513;28;20710;-74
2023/05/15 02:12:06;;;;;;;0.95;0.95;;;7.20;99.90;;;;;;5057793;28;20192;-74
2023/05/15 02:14:32;;;;;;;1.20;0.98;;;7.20;99.90;;;;;;5075702;28;20241;-74
2023/05/15 02:16:57;;;;;;;0.90;0.90;;;7.20;99.90;;;;;;5075464;28;20271;-73
2023/05/15 02:19:23;;;;;;;0.50;0.50;;;7.20;99.90;;;;;;5056973;28;20754;-73
2023/05/15 02:21:50;;;;;;;0.80;0.80;;;7.20;99.90;;;;;;5056742;28;20200;-74
2023/05/15 02:24:15;;;;;;;1.33;1.23;;;7.10;99.90;;;;;;5075211;28;20213;-74
2023/05/15 02:26:50;;;;;;;1.10;1.10;;;7.10;99.90;;;;;;5075062;28;20278;-74
2023/05/15 02:29:33;;;;;;;0.70;0.70;;;7.10;99.90;;;;;;5057109;28;20693;-74
2023/05/15 02:32:02;;;;;;;0.70;0.70;;;7.00;99.90;;;;;;5055013;28;20185;-74
2023/05/15 02:34:48;;;;;;;0.68;0.68;;;7.00;99.90;;;;;;5054845;28;20635;-74
2023/05/15 02:37:19;;;;;;;0.70;0.70;;;7.00;99.90;;;;;;5057415;28;20679;-74
2023/05/15 02:39:48;;;;;;;0.60;0.60;;;6.90;99.90;;;;;;5056797;28;20205;-74
2023/05/15 02:42:15;;;;;;;0.85;0.85;;;6.90;99.90;;;;;;5074886;28;20187;-73
2023/05/15 02:44:43;;;;;;;0.70;0.70;;;6.90;99.90;;;;;;5056767;28;20200;-74
2023/05/15 02:47:09;;;;;;;0.60;0.60;;;6.90;99.90;;;;;;5056680;28;20278;-74
2023/05/15 02:49:35;;;;;;;0.70;0.70;;;6.90;99.90;;;;;;5074333;28;20601;-74
2023/05/15 02:52:00;;;;;;;0.70;0.70;;;6.90;99.90;;;;;;5074799;28;20276;-74
2023/05/15 02:54:26;;;;;;;0.80;0.80;;;6.90;99.90;;;;;;5056472;28;20189;-74
2023/05/15 02:56:52;;;;;;;0.80;0.80;;;6.90;99.90;;;;;;5074620;28;20686;-74
2023/05/15 02:59:18;;;;;;;0.70;0.70;;;6.90;99.90;;;;;;5074637;28;20197;-73
2023/05/15 03:01:48;;;;;;;0.75;0.75;;;7.00;99.90;;;;;;5052045;28;20237;-73
2023/05/15 03:04:14;;;;;;;0.70;0.70;;;6.90;99.90;;;;;;5068725;28;20286;-73
2023/05/15 03:06:40;;;;;;;0.90;0.90;;;6.90;99.90;;;;;;5056258;28;20197;-73
2023/05/15 03:09:06;;;;;;;0.68;0.68;;;6.90;99.90;;;;;;5074324;28;20193;-74
2023/05/15 03:11:31;;;;;;;0.68;0.68;;;7.00;99.90;;;;;;5056221;28;20261;-74
2023/05/15 03:13:59;;;;;;;0.70;0.70;;;7.00;99.90;;;;;;5056300;28;20201;-74
2023/05/15 03:16:25;;;;;;;0.70;0.70;;;7.00;99.90;;;;;;5074060;28;20193;-74
2023/05/15 03:18:51;;;;;;;0.70;0.70;;;7.00;99.90;;;;;;5056600;28;20197;-74
2023/05/15 03:21:17;;;;;;;0.63;0.63;;;7.10;99.90;;;;;;5074051;28;20201;-73
2023/05/15 03:23:43;;;;;;;0.70;0.70;;;7.10;99.90;;;;;;5056022;28;20197;-74
2023/05/15 03:26:09;;;;;;;0.70;0.70;;;7.20;99.90;;;;;;5056281;28;20245;-74
2023/05/15 03:28:34;;;;;;;0.73;0.73;;;7.30;99.90;;;;;;5073845;28;20224;-74
2023/05/15 03:31:00;;;;;;;0.80;0.80;;;7.30;99.90;;;;;;5055712;28;20197;-74
2023/05/15 03:33:26;;;;;;;0.70;0.70;;;7.30;99.90;;;;;;5073131;28;20203;-75
2023/05/15 03:35:52;;;;;;;0.70;0.70;;;7.50;99.90;;;;;;5073520;28;20240;-74
2023/05/15 03:38:19;;;;;;;0.85;0.85;;;7.50;99.90;;;;;;5052312;28;20205;-74
2023/05/15 03:40:44;;;;;;;0.90;0.90;;;7.50;99.90;;;;;;5052236;28;20220;-75
2023/05/15 03:43:10;;;;;;;0.70;0.70;;;7.50;99.90;;;;;;5052885;28;20197;-74
2023/05/15 03:45:37;;;;;;;0.70;0.70;;;7.60;99.90;;;;;;5051928;28;20217;-75
2023/05/15 03:48:03;;;;;;;0.68;0.68;;;7.60;99.90;;;;;;5035727;28;20224;-74
2023/05/15 03:50:30;;;;;;;0.60;0.60;;;7.70;99.90;;;;;;5053420;28;20193;-74
2023/05/15 03:52:55;;;;;;;4.22;2.03;;;7.90;99.90;;;;;;5053507;28;20201;-74
2023/05/15 03:55:21;;;;;;;0.77;0.77;;;7.90;99.90;;;;;;5035350;28;20205;-74
2023/05/15 03:57:47;;;;;;;2.40;1.08;;;8.00;99.90;;;;;;5053417;28;20216;-74
2023/05/15 04:00:13;;;;;;;0.60;0.60;;;8.20;99.90;;;;;;5037135;28;20220;-75
2023/05/15 04:02:39;;;;;;;0.60;0.60;;;8.30;99.90;;;;;;5053063;28;20241;-74
2023/05/15 04:05:06;;;;;;;0.47;0.47;;;8.30;99.90;;;;;;5053073;28;20236;-75
2023/05/15 04:07:33;;;;;;;0.60;0.60;;;8.40;99.90;;;;;;5035176;28;20201;-75
2023/05/15 04:10:02;;;;;;;0.50;0.50;;;8.50;99.90;;;;;;5053233;28;20742;-73
2023/05/15 04:12:30;;;;;;;1.30;1.20;;;8.60;99.90;;;;;;5052906;28;20217;-74
2023/05/15 04:15:11;;;;;;;0.77;0.77;;;8.70;99.90;;;;;;5053006;28;20316;-74
2023/05/15 04:17:37;;;;;;;0.70;0.70;;;8.80;99.90;;;;;;5052881;28;20226;-74
2023/05/15 04:20:04;;;;;;;0.70;0.70;;;8.90;99.90;;;;;;5052808;28;20240;-74
2023/05/15 04:22:30;;;;;;;0.95;0.95;;;9.00;99.90;;;;;;5052837;28;20197;-74
2023/05/15 04:24:57;;;;;;;1.10;1.00;;;9.20;99.90;;;;;;5052812;28;20225;-74
2023/05/15 04:27:24;;;;;;;0.55;0.55;;;9.30;99.90;;;;;;5065342;28;20207;-74
2023/05/15 04:29:50;;;;;;;0.98;0.98;;;9.50;99.90;;;;;;5054703;28;20201;-74
2023/05/15 04:32:16;;;;;;;0.80;0.80;;;9.70;99.90;;;;;;5054629;28;20283;-74
2023/05/15 04:34:41;;;;;;;0.55;0.55;;;9.80;99.90;;;;;;5072548;28;20262;-75
2023/05/15 04:37:07;;;;;;;0.75;0.75;;;9.90;99.90;;;;;;5072320;28;20290;-74
2023/05/15 04:39:33;;;;;;;0.70;0.70;;;10.00;99.90;;;;;;5072211;28;20204;-74
2023/05/15 04:41:58;;;;;;;0.60;0.60;;;10.10;99.90;;;;;;5072571;28;20663;-74
2023/05/15 04:44:24;;;;;;;0.80;0.80;;;10.20;99.90;;;;;;5072346;28;20193;-74
2023/05/15 04:46:50;;;;;;;0.88;0.88;;;10.30;99.90;;;;;;5058638;28;20194;-74
2023/05/15 04:49:15;;;;;;;0.60;0.60;;;10.40;99.90;;;;;;5052526;28;20251;-74
2023/05/15 04:51:41;;;;;;;1.42;1.10;;;10.50;99.90;;;;;;5034343;28;20210;-74
2023/05/15 04:54:07;;;;;;;0.50;0.50;;;10.60;99.90;;;;;;5034438;28;20687;-74
2023/05/15 04:56:33;;;;;;;0.60;0.60;;;10.70;99.90;;;;;;5058036;28;20207;-74
2023/05/15 04:58:58;;;;;;;0.70;0.70;;;10.80;99.90;;;;;;5072350;28;20196;-74
2023/05/15 05:01:24;;;;;;;0.50;0.50;;;10.90;99.90;;;;;;5053999;28;20216;-74
2023/05/15 05:03:50;;;;;;;0.98;0.85;;;11.00;99.90;;;;;;5054009;28;20224;-74
2023/05/15 05:06:16;;;;;;;0.60;0.60;;;11.10;99.90;;;;;;5072285;28;20197;-74
2023/05/15 05:08:42;;;;;;;0.60;0.60;;;11.20;99.90;;;;;;5072157;28;20193;-75
2023/05/15 05:11:07;;;;;;;0.60;0.60;;;11.40;99.90;;;;;;5054366;28;20232;-74
2023/05/15 05:13:33;;;;;;;0.60;0.60;;;11.50;99.90;;;;;;5072050;28;20207;-74
2023/05/15 05:15:59;;;;;;;0.55;0.55;;;11.60;99.90;;;;;;5054883;28;20197;-74
2023/05/15 05:18:25;;;;;;;0.52;0.52;;;11.70;99.90;;;;;;5072065;28;20197;-72
2023/05/15 05:20:58;;;;;;;1.83;1.10;;;11.80;99.90;;;;;;5054054;28;20216;-74
2023/05/15 05:23:24;;;;;;;1.30;1.20;;;12.00;99.90;;;;;;5042612;28;20208;-74
2023/05/15 05:25:50;;;;;;;0.50;0.50;;;12.10;99.90;;;;;;5034187;28;20193;-74
2023/05/15 05:28:16;;;;;;;12.90;1.17;;;12.30;99.90;;;;;;5052386;28;20193;-74
2023/05/15 05:30:45;;;;;;;0.70;0.70;;;12.40;99.90;;;;;;5051862;28;20268;-74
2023/05/15 05:33:11;;;;;;;0.50;0.50;;;12.50;99.90;;;;;;5034204;28;20208;-74
2023/05/15 05:35:37;;;;;;;0.68;0.68;;;12.70;99.90;;;;;;5051643;28;20268;-74
2023/05/15 05:38:03;;;;;;;1.17;1.08;;;12.80;99.90;;;;;;5042568;28;20210;-75
2023/05/15 05:40:29;;;;;;;0.85;0.85;;;13.00;99.90;;;;;;5031771;28;20657;-74
2023/05/15 05:42:59;;;;;;;0.60;0.60;;;13.10;99.90;;;;;;5031971;28;20218;-75
2023/05/15 05:45:25;;;;;;;0.60;0.60;;;13.30;99.90;;;;;;5031787;28;20673;-74
2023/05/15 05:47:50;;;;;;;0.70;0.70;;;13.40;99.90;;;;;;5032062;28;20225;-74
2023/05/15 05:50:16;;;;;;;0.68;0.68;;;13.40;99.90;;;;;;5032006;28;20194;-74
2023/05/15 05:52:42;;;;;;;0.88;0.88;;;13.50;99.90;;;;;;5019004;28;20217;-74
2023/05/15 05:55:08;;;;;;;0.80;0.80;;;13.80;99.90;;;;;;5052139;28;20201;-75
2023/05/15 05:57:34;;;;;;;1.10;1.05;;;13.90;99.90;;;;;;5053000;28;20273;-74
2023/05/15 06:00:00;;;;;;;0.47;0.47;;;14.10;99.90;;;;;;5037569;28;20233;-75
2023/05/15 06:02:26;;;;;;;0.65;0.65;;;14.50;99.90;;;;;;5055177;28;20190;-74
2023/05/15 06:04:51;;;;;;;0.80;0.80;;;14.80;99.90;;;;;;5055296;28;20232;-74
2023/05/15 06:07:17;;;;;;;0.95;0.82;;;15.00;99.90;;;;;;5055524;28;20202;-74
2023/05/15 06:09:44;;;;;;;0.85;0.85;;;14.90;99.90;;;;;;5055302;28;20186;-74
2023/05/15 06:12:11;;;;;;;1.27;1.17;;;15.00;99.90;;;;;;5055560;28;20189;-74
2023/05/15 06:14:36;;;;;;;0.52;0.52;;;15.10;99.90;;;;;;5055112;28;20328;-75
2023/05/15 06:17:02;;;;;;;0.40;0.40;;;15.30;99.90;;;;;;5037636;28;20664;-74
2023/05/15 06:19:29;;;;;;;0.50;0.50;;;15.40;99.90;;;;;;5064500;28;20189;-75
2023/05/15 06:21:54;;;;;;;0.40;0.40;;;15.40;99.90;;;;;;5075154;28;20224;-74
2023/05/15 06:24:20;;;;;;;0.30;0.30;;;15.50;99.90;;;;;;5057110;28;20224;-74
2023/05/15 06:26:46;;;;;;;2.10;1.20;;;15.50;99.90;;;;;;5075123;28;20185;-75
2023/05/15 06:29:12;;;;;;;1.40;0.98;;;15.50;99.90;;;;;;5075020;28;20559;-75
2023/05/15 06:31:37;;;;;;;0.50;0.50;;;15.40;99.90;;;;;;5056837;28;20679;-74
2023/05/15 06:34:03;;;;;;;1.13;1.02;;;15.30;99.90;;;;;;5075025;28;20196;-74
2023/05/15 06:36:29;;;;;;;1.00;0.90;;;15.30;99.90;;;;;;5056916;28;20559;-75
2023/05/15 06:38:54;;;;;;;0.55;0.55;;;15.40;99.90;;;;;;5053395;28;20201;-74
2023/05/15 06:41:20;;;;;;;0.90;0.90;;;15.50;99.90;;;;;;5036740;28;20220;-75
2023/05/15 06:43:46;;;;;;;1.17;0.93;;;15.50;99.90;;;;;;5054871;28;20648;-74
2023/05/15 06:46:15;;;;;;;0.82;0.82;;;15.60;99.90;;;;;;5045301;28;20284;-74
2023/05/15 06:48:40;;;;;;;0.73;0.73;;;15.90;99.90;;;;;;5054055;28;20209;-74
2023/05/15 06:51:06;;;;;;;0.50;0.50;;;16.20;99.90;;;;;;5053430;28;20686;-74
2023/05/15 06:53:32;;;;;;;0.60;0.60;;;16.70;99.90;;;;;;5054608;28;20683;-75
2023/05/15 06:55:58;;;;;;;0.80;0.73;;;17.00;99.90;;;;;;5054607;28;20200;-75
2023/05/15 06:58:24;;;;;;;1.50;0.90;;;17.30;99.90;;;;;;5054306;28;20221;-75
2023/05/15 07:00:50;;;;;;;1.08;0.98;;;17.40;99.90;;;;;;5053159;28;20304;-75
2023/05/15 07:03:16;;;;;;;0.57;0.57;;;17.80;99.90;;;;;;5052954;28;20284;-75
2023/05/15 07:05:42;;;;;;;0.57;0.57;;;18.00;99.90;;;;;;5073256;28;20713;-74
2023/05/15 07:08:08;;;;;;;0.85;0.85;;;18.40;99.90;;;;;;5073877;28;20185;-75
2023/05/15 07:10:33;;;;;;;1.13;0.98;;;18.60;99.90;;;;;;5055526;28;20565;-74
2023/05/15 07:12:59;;;;;;;1.50;0.88;;;18.90;99.90;;;;;;5074350;28;20227;-74
2023/05/15 07:15:25;;;;;;;1.55;0.77;;;19.10;99.90;;;;;;5073793;28;20196;-75
2023/05/15 07:17:50;;;;;;;0.52;0.52;;;19.30;99.90;;;;;;5074204;28;20229;-75
2023/05/15 07:20:16;;;;;;;1.52;0.95;;;19.50;99.90;;;;;;5074187;28;20227;-75
2023/05/15 07:22:42;;;;;;;0.70;0.70;;;19.70;99.90;;;;;;5074017;28;20185;-75
2023/05/15 07:25:08;;;;;;;1.50;1.05;;;20.00;99.90;;;;;;5074088;28;20659;-74
2023/05/15 07:27:34;;;;;;;0.88;0.88;;;20.10;99.90;;;;;;5073751;28;20226;-74
2023/05/15 07:30:02;;;;;;;0.73;0.70;;;20.20;99.90;;;;;;5055904;28;20207;-74
2023/05/15 07:32:29;;;;;;;1.02;0.93;;;20.20;99.90;;;;;;5073705;28;20192;-75
2023/05/15 07:34:55;;;;;;;9.43;0.80;;;20.00;99.90;;;;;;5073767;28;20189;-74
2023/05/15 07:37:21;;;;;;;0.68;0.68;;;19.90;99.90;;;;;;5052189;28;20202;-75
2023/05/15 07:39:47;;;;;;;0.47;0.47;;;19.80;99.90;;;;;;5052415;28;20193;-75
2023/05/15 07:42:13;;;;;;;1.40;1.30;;;19.40;99.90;;;;;;5054073;28;20204;-74
2023/05/15 07:44:39;;;;;;;0.95;0.40;;;19.20;99.90;;;;;;5053930;28;20206;-74
2023/05/15 07:47:04;;;;;;;2.85;1.02;;;18.90;99.90;;;;;;5073512;28;20201;-74
2023/05/15 07:49:30;;;;;;;2.88;0.93;;;18.60;99.90;;;;;;5073403;28;20192;-74
2023/05/15 07:51:56;;;;;;;8.82;1.17;;;18.30;99.90;;;;;;5055598;28;20246;-74
2023/05/15 07:54:22;;;;;;;1.55;1.23;;;18.00;99.90;;;;;;5073254;28;20204;-75
2023/05/15 07:56:48;;;;;;;0.60;0.60;;;17.80;99.90;;;;;;5073374;28;20188;-74
2023/05/15 07:59:13;;;;;;;0.50;0.50;;;17.80;99.90;;;;;;5073364;28;20197;-74
2023/05/15 08:01:39;;;;;;;0.80;0.80;;;17.90;99.90;;;;;;5073017;28;20212;-74
2023/05/15 08:04:07;;;;;;;2.65;0.70;;;18.00;99.90;;;;;;5073018;28;20231;-74
2023/05/15 08:06:34;;;;;;;0.45;0.45;;;18.00;99.90;;;;;;5073125;28;20736;-74
2023/05/15 08:08:59;;;;;;;0.60;0.60;;;18.10;99.90;;;;;;5073197;28;20185;-75
2023/05/15 08:11:25;;;;;;;0.40;0.40;;;18.30;99.90;;;;;;5072776;28;20535;-75
2023/05/15 08:13:51;;;;;;;0.50;0.50;;;18.40;99.90;;;;;;5055117;28;20197;-74
2023/05/15 08:16:17;;;;;;;0.85;0.70;;;18.60;99.90;;;;;;5073112;28;20228;-74
2023/05/15 08:18:43;;;;;;;2.20;0.63;;;18.90;99.90;;;;;;5072854;28;20200;-74
2023/05/15 08:21:10;;;;;;;0.60;0.60;;;19.30;99.90;;;;;;5072493;28;20208;-75
2023/05/15 08:23:35;;;;;;;0.82;0.82;;;19.70;99.90;;;;;;5054737;28;20217;-75
2023/05/15 08:26:01;;;;;;;0.65;0.65;;;20.10;99.90;;;;;;5072928;28;20230;-75
2023/05/15 08:28:27;;;;;;;0.70;0.70;;;20.30;99.90;;;;;;5054658;28;20247;-75
2023/05/15 08:30:53;;;;;;;0.70;0.60;;;20.70;99.90;;;;;;5054873;28;20662;-74
2023/05/15 08:33:18;;;;;;;0.50;0.50;;;21.00;99.90;;;;;;5054816;28;20200;-74
2023/05/15 08:35:44;;;;;;;1.25;0.63;;;21.50;99.90;;;;;;5072748;28;20554;-75
2023/05/15 08:38:10;;;;;;;1.35;0.70;;;21.80;99.90;;;;;;5051310;28;20652;-76
2023/05/15 08:40:36;;;;;;;0.77;0.77;;;22.00;99.90;;;;;;5034534;28;20290;-75
2023/05/15 08:43:13;;;;;;;1.10;0.75;;;22.30;99.90;;;;;;5052580;28;20201;-75
2023/05/15 08:45:40;;;;;;;0.60;0.43;;;22.40;99.90;;;;;;5056408;28;20278;-75
2023/05/15 08:48:12;;;;;;;2.90;0.75;;;22.80;99.70;;;;;;5072633;28;20196;-75
2023/05/15 08:50:40;;;;;;;0.55;0.55;;;22.80;98.50;;;;;;5054421;28;20205;-75
2023/05/15 08:53:06;;;;;;;0.85;0.70;;;22.60;97.00;;;;;;5072497;28;20265;-72
2023/05/15 08:55:32;;;;;;;0.30;0.30;;;22.80;96.90;;;;;;5072275;28;20566;-72
2023/05/15 08:57:59;;;;;;;1.17;0.70;;;23.00;98.40;;;;;;5072457;28;20197;-72
2023/05/15 09:00:26;;;;;;;0.70;0.70;;;23.30;97.60;;;;;;5072176;28;20210;-73
2023/05/15 09:02:52;;;;;;;1.95;1.05;;;23.40;97.40;;;;;;5072141;28;20188;-73
2023/05/15 09:05:18;;;;;;;0.30;0.30;;;23.10;95.40;;;;;;5072225;28;20267;-72
2023/05/15 09:07:46;;;;;;;3.10;0.82;;;23.20;94.10;;;;;;5072121;28;20216;-71
2023/05/15 09:10:12;;;;;;;0.68;0.60;;;22.90;94.60;;;;;;5054348;28;20201;-72
2023/05/15 09:12:43;;;;;;;0.45;0.45;;;22.90;93.20;;;;;;5072250;28;20254;-72
2023/05/15 09:15:16;;;;;;;0.90;0.70;;;23.40;95.00;;;;;;5072378;28;20188;-73
2023/05/15 09:17:44;;;;;;;0.77;0.77;;;23.80;92.00;;;;;;5072263;28;20257;-72
2023/05/15 09:20:33;;;;;;;0.60;0.55;;;23.60;93.00;;;;;;5072137;28;20203;-72
2023/05/15 09:23:02;;;;;;;0.95;0.88;;;24.10;92.70;;;;;;5062284;28;20269;-72
2023/05/15 09:25:38;;;;;;;0.40;0.40;;;24.60;90.80;;;;;;5072071;28;20199;-72
2023/05/15 09:28:05;;;;;;;0.82;0.77;;;25.00;89.50;;;;;;5072239;28;20662;-72
2023/05/15 09:30:33;;;;;;;0.43;0.40;;;25.30;90.00;;;;;;5053977;28;20196;-72
2023/05/15 09:33:02;;;;;;;0.70;0.70;;;25.30;87.20;;;;;;5074392;28;20715;-73
2023/05/15 09:35:34;;;;;;;1.27;0.75;;;25.10;90.10;;;;;;5075966;28;20192;-72
2023/05/15 09:38:03;;;;;;;1.20;0.73;;;25.10;85.80;;;;;;5066883;28;20201;-72
2023/05/15 09:40:30;;;;;;;1.17;0.47;;;24.20;83.20;;;;;;5055819;28;20232;-73
2023/05/15 09:42:57;;;;;;;0.82;0.43;;;23.90;85.40;;;;;;5054765;28;20292;-73
2023/05/15 09:45:25;;;;;;;0.93;0.70;;;23.70;84.80;;;;;;5057239;28;20190;-74
2023/05/15 09:47:51;;;;;;;0.55;0.55;;;23.70;88.40;;;;;;5075942;28;20192;-74
2023/05/15 09:50:22;;;;;;;0.65;0.63;;;23.60;85.60;;;;;;5076114;28;20196;-72
2023/05/15 09:52:48;;;;;;;1.08;0.75;;;23.50;84.40;;;;;;5075964;28;20230;-74
2023/05/15 09:55:21;;;;;;;0.32;0.32;;;23.20;85.50;;;;;;5057738;28;20597;-74
2023/05/15 09:58:07;;;;;;;0.60;0.60;;;23.30;87.00;;;;;;5057751;28;20258;-72
2023/05/15 10:00:34;;;;;;;0.82;0.60;;;23.10;86.40;;;;;;5075447;28;20319;-72
2023/05/15 10:03:04;;;;;;;1.08;0.68;;;23.20;85.60;;;;;;5075417;28;20207;-73
2023/05/15 10:05:30;;;;;;;1.95;1.00;;;23.20;87.50;;;;;;5075136;28;20581;-72
2023/05/15 10:07:57;;;;;;;0.50;0.50;;;23.20;83.80;;;;;;5057775;28;20659;-72
2023/05/15 10:10:23;;;;;;;0.47;0.47;;;22.90;83.50;;;;;;5057323;28;20251;-72
2023/05/15 10:12:53;;;;;;;0.50;0.50;;;23.00;86.60;;;;;;5075447;28;20608;-72
2023/05/15 10:15:20;;;;;;;4.35;0.77;;;23.00;86.80;;;;;;5057187;28;20258;-74
2023/05/15 10:17:48;;;;;;;0.40;0.40;;;22.70;84.70;;;;;;5057735;28;20197;-72
2023/05/15 10:20:16;;;;;;;0.50;0.47;;;22.30;85.60;;;;;;5075290;28;20266;-73
2023/05/15 10:22:45;;;;;;;1.08;0.80;;;22.40;87.20;;;;;;5057187;28;20226;-71
2023/05/15 10:25:37;;;;;;;0.98;0.60;;;22.30;87.50;;;;;;5075228;28;20185;-72
2023/05/15 10:28:03;;;;;;;0.50;0.50;;;22.30;85.60;;;;;;5075173;28;20271;-72
2023/05/15 10:30:31;;;;;;;1.60;0.82;;;22.40;85.50;;;;;;5074935;28;20189;-73
2023/05/15 10:32:57;;;;;;;0.28;0.28;;;22.30;83.00;;;;;;5057065;28;20244;-73
2023/05/15 10:35:23;;;;;;;0.52;0.52;;;22.50;86.10;;;;;;5057812;28;20259;-73
2023/05/15 10:37:49;;;;;;;1.40;0.65;;;22.70;84.10;;;;;;5053434;28;20251;-73
2023/05/15 10:40:16;;;;;;;0.82;0.75;;;23.40;86.30;;;;;;5054796;28;20607;-72
2023/05/15 10:42:46;;;;;;;0.30;0.30;;;24.20;82.60;;;;;;5064720;28;20193;-72
2023/05/15 10:45:12;;;;;;;0.65;0.55;;;24.90;80.50;;;;;;5074934;28;20185;-73
2023/05/15 10:47:39;;;;;;;4.13;0.93;;;25.70;79.60;;;;;;5057025;28;20236;-72
2023/05/15 10:50:06;;;;;;;0.75;0.60;;;25.80;77.40;;;;;;5074671;28;20196;-74
2023/05/15 10:52:33;;;;;;;1.77;0.98;;;26.00;74.50;;;;;;5074600;28;20659;-74
2023/05/15 10:54:59;;;;;;;15.10;0.70;;;25.40;79.00;;;;;;5075042;28;20220;-73
2023/05/15 10:57:28;;;;;;;0.63;0.63;;;25.10;79.60;;;;;;5056526;28;20208;-73
2023/05/15 10:59:54;;;;;;;0.70;0.55;;;24.90;78.70;;;;;;5053487;28;20290;-74
2023/05/15 11:02:22;;;;;;;2.20;1.15;;;24.90;81.50;;;;;;5036330;28;20197;-75
2023/05/15 11:04:59;;;;;;;0.65;0.50;;;25.20;79.70;;;;;;5054470;28;20225;-74
2023/05/15 11:07:26;;;;;;;0.85;0.70;;;25.40;78.00;;;;;;5054336;28;20197;-73
2023/05/15 11:09:53;;;;;;;0.75;0.63;;;25.30;78.80;;;;;;5054441;28;20534;-74
2023/05/15 11:12:18;;;;;;;0.43;0.43;;;25.50;78.00;;;;;;5046332;28;20200;-74
2023/05/15 11:15:11;;;;;;;0.65;0.65;;;25.60;76.20;;;;;;5074267;28;20212;-73
2023/05/15 11:17:36;;;;;;;1.83;1.13;;;25.20;73.90;;;;;;5056054;28;20197;-74
2023/05/15 11:20:03;;;;;;;2.85;0.88;;;24.00;75.50;;;;;;5056303;28;20702;-74
2023/05/15 11:22:37;;;;;;;1.80;0.80;;;23.60;78.70;;;;;;5056029;28;20197;-73
2023/05/15 11:25:08;;;;;;;1.25;1.00;;;24.00;77.30;;;;;;5056372;28;21068;-73
2023/05/15 11:27:38;;;;;;;1.00;0.52;;;24.40;77.80;;;;;;5073906;28;20238;-74
2023/05/15 11:30:04;;;;;;;2.88;1.02;;;25.20;76.50;;;;;;5069883;28;20699;-73
2023/05/15 11:32:39;;;;;;;0.82;0.80;;;25.80;73.90;;;;;;5052584;28;20591;-73
2023/05/15 11:35:28;;;;;;;0.43;0.43;;;26.00;70.50;;;;;;5053884;28;20188;-73
2023/05/15 11:37:56;;;;;;;0.60;0.60;;;26.50;74.10;;;;;;5061541;28;20680;-73
2023/05/15 11:40:30;;;;;;;0.25;0.25;;;25.90;72.30;;;;;;5073579;28;20259;-74
2023/05/15 11:43:03;;;;;;;0.30;0.30;;;25.50;72.80;;;;;;5074058;28;20218;-73
2023/05/15 11:45:34;;;;;;;0.28;0.20;;;26.20;70.60;;;;;;5073637;28;20655;-73
2023/05/15 11:48:02;;;;;;;0.60;0.60;;;26.40;70.10;;;;;;5055746;28;20197;-73
2023/05/15 11:50:30;;;;;;;0.88;0.70;;;25.80;72.10;;;;;;5073408;28;20245;-73
2023/05/15 11:52:56;;;;;;;0.93;0.60;;;25.60;77.50;;;;;;5055629;28;20201;-74
2023/05/15 11:55:22;;;;;;;0.43;0.43;;;25.90;74.90;;;;;;5072620;28;20197;-74
2023/05/15 11:57:48;;;;;;;1.50;0.77;;;25.60;72.00;;;;;;5073510;28;20192;-73
2023/05/15 12:00:14;;;;;;;0.40;0.40;;;25.80;75.80;;;;;;5055338;28;20667;-74
2023/05/15 12:02:40;;;;;;;1.33;1.05;;;25.90;70.60;;;;;;5054937;28;21271;-73
2023/05/15 12:05:07;;;;;;;1.48;0.95;;;25.90;72.00;;;;;;5073103;28;20643;-73
2023/05/15 12:07:39;;;;;;;2.45;0.90;;;26.10;69.50;;;;;;5055099;28;20712;-73
2023/05/15 12:10:06;;;;;;;0.88;0.60;;;26.30;70.80;;;;;;5073150;28;20181;-74
2023/05/15 12:12:34;;;;;;;0.77;0.70;;;26.70;71.70;;;;;;5073092;28;20189;-73
2023/05/15 12:14:59;;;;;;;0.82;0.80;;;27.20;72.80;;;;;;5073113;28;20188;-73
2023/05/15 12:17:26;;;;;;;1.20;0.82;;;26.70;71.90;;;;;;5072962;28;20291;-73
2023/05/15 12:19:54;;;;;;;1.83;0.80;;;25.10;72.10;;;;;;5072999;28;20639;-72
2023/05/15 12:22:20;;;;;;;1.08;0.63;;;25.30;76.60;;;;;;5072841;28;20189;-74
2023/05/15 12:24:46;;;;;;;7.32;0.95;;;25.30;74.60;;;;;;5073079;28;20223;-72
2023/05/15 12:27:13;;;;;;;1.67;1.00;;;25.60;72.80;;;;;;5043700;28;20233;-73
2023/05/15 12:29:40;;;;;;;12.90;1.23;;;26.40;75.10;;;;;;5052666;28;20644;-73
2023/05/15 12:32:07;;;;;;;1.73;1.10;;;27.00;76.30;;;;;;5052878;28;20229;-73
2023/05/15 12:34:33;;;;;;;1.17;0.88;;;27.80;75.90;;;;;;5039703;28;20199;-73
2023/05/15 12:36:59;;;;;;;0.60;0.50;;;27.80;75.80;;;;;;5054154;28;20279;-73
2023/05/15 12:39:25;;;;;;;0.50;0.50;;;27.80;69.30;;;;;;5052497;28;20199;-73
2023/05/15 12:41:54;;;;;;;2.67;1.08;;;27.40;70.50;;;;;;5052744;28;20618;-73
2023/05/15 12:44:20;;;;;;;1.50;1.13;;;27.50;69.60;;;;;;5034641;28;20189;-75
2023/05/15 12:46:46;;;;;;;0.88;0.80;;;26.80;69.60;;;;;;5052669;28;20189;-74
2023/05/15 12:49:12;;;;;;;0.80;0.60;;;27.40;72.50;;;;;;5034754;28;20190;-73
2023/05/15 12:51:42;;;;;;;7.10;0.98;;;27.40;70.00;;;;;;5052489;28;20208;-74